sensor_id;sensor_type;location;lat;lon;timestamp;temperature;humidity
44121;DHT22;29783;52.504;13.478;2023-05-18T06:08:47;10.00;68.40
44121;DHT22;29783;52.504;13.478;2023-05-18T06:11:12;10.10;67.90
44121;DHT22;29783;52.504;13.478;2023-05-18T06:13:39;10.20;67.90
44121;DHT22;29783;52.504;13.478;2023-05-18T06:16:04;10.30;67.10
44121;DHT22;29783;52.504;13.478;2023-05-18T06:18:30;10.20;67.00
44121;DHT22;29783;52.504;13.478;2023-05-18T06:20:56;10.30;67.00
44121;DHT22;29783;52.504;13.478;2023-05-18T06:23:22;10.40;66.90
44121;DHT22;29783;52.504;13.478;2023-05-18T06:25:48;10.50;66.80
44121;DHT22;29783;52.504;13.478;2023-05-18T06:28:14;10.70;66.60
44121;DHT22;29783;52.504;13.478;2023-05-18T06:30:40;10.80;66.10
44121;DHT22;29783;52.504;13.478;2023-05-18T06:33:06;10.90;65.80
44121;DHT22;29783;52.504;13.478;2023-05-18T06:35:32;11.00;65.00
44121;DHT22;29783;52.504;13.478;2023-05-18T06:37:58;11.10;64.70
44121;DHT22;29783;52.504;13.478;2023-05-18T06:40:24;11.10;64.50
44121;DHT22;29783;52.504;13.478;2023-05-18T06:42:50;11.20;64.30
44121;DHT22;29783;52.504;13.478;2023-05-18T06:45:17;11.30;64.20
44121;DHT22;29783;52.504;13.478;2023-05-18T06:47:44;11.40;63.90
44121;DHT22;29783;52.504;13.478;2023-05-18T06:50:10;11.30;63.20
44121;DHT22;29783;52.504;13.478;2023-05-18T06:52:36;11.30;63.20
44121;DHT22;29783;52.504;13.478;2023-05-18T06:55:03;11.40;63.50
44121;DHT22;29783;52.504;13.478;2023-05-18T06:57:30;11.70;62.60
44121;DHT22;29783;52.504;13.478;2023-05-18T06:59:56;11.70;61.80
44121;DHT22;29783;52.504;13.478;2023-05-18T07:02:21;11.90;62.00
44121;DHT22;29783;52.504;13.478;2023-05-18T07:04:50;11.80;61.70
44121;DHT22;29783;52.504;13.478;2023-05-18T07:07:16;11.90;61.40
44121;DHT22;29783;52.504;13.478;2023-05-18T07:09:42;11.80;61.70
44121;DHT22;29783;52.504;13.478;2023-05-18T07:12:12;11.90;61.60
44121;DHT22;29783;52.504;13.478;2023-05-18T07:14:38;12.10;60.90
44121;DHT22;29783;52.504;13.478;2023-05-18T07:17:04;12.20;60.40
44121;DHT22;29783;52.504;13.478;2023-05-18T07:19:31;12.20;59.50
44121;DHT22;29783;52.504;13.478;2023-05-18T07:21:57;12.30;59.30
44121;DHT22;29783;52.504;13.478;2023-05-18T07:24:24;12.20;58.80
44121;DHT22;29783;52.504;13.478;2023-05-18T07:26:50;12.30;57.70
44121;DHT22;29783;52.504;13.478;2023-05-18T07:29:15;12.30;57.70
44121;DHT22;29783;52.504;13.478;2023-05-18T07:31:41;12.40;57.90
44121;DHT22;29783;52.504;13.478;2023-05-18T07:34:07;12.50;57.60
44121;DHT22;29783;52.504;13.478;2023-05-18T07:36:33;12.50;55.40
44121;DHT22;29783;52.504;13.478;2023-05-18T07:38:59;12.70;54.60
44121;DHT22;29783;52.504;13.478;2023-05-18T07:41:25;12.90;53.40
44121;DHT22;29783;52.504;13.478;2023-05-18T07:43:52;13.10;52.00
44121;DHT22;29783;52.504;13.478;2023-05-18T08:24:17;14.20;46.70
44121;DHT22;29783;52.504;13.478;2023-05-18T08:30:24;13.80;47.80
44121;DHT22;29783;52.504;13.478;2023-05-18T08:32:51;14.10;48.20
44121;DHT22;29783;52.504;13.478;2023-05-18T08:35:16;14.30;47.60
44121;DHT22;29783;52.504;13.478;2023-05-18T08:37:43;14.70;47.10
44121;DHT22;29783;52.504;13.478;2023-05-18T08:40:10;15.20;46.00
44121;DHT22;29783;52.504;13.478;2023-05-18T08:42:51;15.20;45.80
44121;DHT22;29783;52.504;13.478;2023-05-18T08:45:31;15.50;45.60
44121;DHT22;29783;52.504;13.478;2023-05-18T08:48:00;15.30;45.40
44121;DHT22;29783;52.504;13.478;2023-05-18T08:50:30;15.20;46.30
44121;DHT22;29783;52.504;13.478;2023-05-18T08:53:00;15.10;46.40
44121;DHT22;29783;52.504;13.478;2023-05-18T08:55:29;15.00;46.70
44121;DHT22;29783;52.504;13.478;2023-05-18T08:58:02;15.20;46.10
44121;DHT22;29783;52.504;13.478;2023-05-18T09:00:28;15.60;45.90
44121;DHT22;29783;52.504;13.478;2023-05-18T09:02:55;15.20;46.40
44121;DHT22;29783;52.504;13.478;2023-05-18T09:05:22;14.70;48.00
44121;DHT22;29783;52.504;13.478;2023-05-18T09:07:50;14.80;47.80
44121;DHT22;29783;52.504;13.478;2023-05-18T09:10:17;14.70;47.30
44121;DHT22;29783;52.504;13.478;2023-05-18T09:12:43;14.50;48.20
44121;DHT22;29783;52.504;13.478;2023-05-18T09:15:14;14.50;48.10
44121;DHT22;29783;52.504;13.478;2023-05-18T09:17:40;14.60;48.10
44121;DHT22;29783;52.504;13.478;2023-05-18T09:20:06;14.80;48.40
44121;DHT22;29783;52.504;13.478;2023-05-18T09:22:33;15.00;47.20
44121;DHT22;29783;52.504;13.478;2023-05-18T09:25:09;15.20;46.90
44121;DHT22;29783;52.504;13.478;2023-05-18T09:27:35;15.10;47.30
44121;DHT22;29783;52.504;13.478;2023-05-18T09:30:01;15.30;45.70
44121;DHT22;29783;52.504;13.478;2023-05-18T09:32:27;15.20;45.60
44121;DHT22;29783;52.504;13.478;2023-05-18T09:34:53;15.40;45.30
44121;DHT22;29783;52.504;13.478;2023-05-18T09:37:20;15.50;45.10
44121;DHT22;29783;52.504;13.478;2023-05-18T09:40:00;15.60;44.80
44121;DHT22;29783;52.504;13.478;2023-05-18T09:42:32;15.40;44.90
44121;DHT22;29783;52.504;13.478;2023-05-18T09:44:59;15.70;45.00
44121;DHT22;29783;52.504;13.478;2023-05-18T09:47:26;15.70;45.10
44121;DHT22;29783;52.504;13.478;2023-05-18T09:49:54;15.80;44.90
44121;DHT22;29783;52.504;13.478;2023-05-18T09:52:22;15.60;44.90
44121;DHT22;29783;52.504;13.478;2023-05-18T09:54:58;15.50;45.30
44121;DHT22;29783;52.504;13.478;2023-05-18T09:57:25;15.90;44.50
44121;DHT22;29783;52.504;13.478;2023-05-18T10:00:03;16.10;43.70
44121;DHT22;29783;52.504;13.478;2023-05-18T10:02:40;16.20;42.80
44121;DHT22;29783;52.504;13.478;2023-05-18T10:05:20;16.30;42.80
44121;DHT22;29783;52.504;13.478;2023-05-18T10:07:46;16.50;42.30
44121;DHT22;29783;52.504;13.478;2023-05-18T10:10:16;16.30;41.90
44121;DHT22;29783;52.504;13.478;2023-05-18T10:12:42;16.50;41.30
44121;DHT22;29783;52.504;13.478;2023-05-18T10:15:09;16.70;41.60
44121;DHT22;29783;52.504;13.478;2023-05-18T10:17:36;17.20;40.90
44121;DHT22;29783;52.504;13.478;2023-05-18T10:20:04;16.90;41.00
44121;DHT22;29783;52.504;13.478;2023-05-18T10:22:34;16.50;41.60
44121;DHT22;29783;52.504;13.478;2023-05-18T10:25:03;16.50;41.90
44121;DHT22;29783;52.504;13.478;2023-05-18T10:27:33;16.40;42.10
44121;DHT22;29783;52.504;13.478;2023-05-18T10:29:59;16.70;41.50
44121;DHT22;29783;52.504;13.478;2023-05-18T10:32:29;17.10;40.60
44121;DHT22;29783;52.504;13.478;2023-05-18T10:34:55;17.40;40.00
44121;DHT22;29783;52.504;13.478;2023-05-18T10:37:22;17.30;39.50
44121;DHT22;29783;52.504;13.478;2023-05-18T10:39:50;17.20;40.10
44121;DHT22;29783;52.504;13.478;2023-05-18T10:42:16;17.10;40.60
44121;DHT22;29783;52.504;13.478;2023-05-18T10:50:52;18.10;38.50
44121;DHT22;29783;52.504;13.478;2023-05-18T10:53:26;18.10;38.40
44121;DHT22;29783;52.504;13.478;2023-05-18T10:55:52;18.10;38.50
44121;DHT22;29783;52.504;13.478;2023-05-18T10:58:21;18.00;38.30
44121;DHT22;29783;52.504;13.478;2023-05-18T11:00:55;18.10;37.70
44121;DHT22;29783;52.504;13.478;2023-05-18T11:03:21;18.20;37.80
44121;DHT22;29783;52.504;13.478;2023-05-18T11:05:59;17.80;38.40
44121;DHT22;29783;52.504;13.478;2023-05-18T11:08:26;18.00;38.90
44121;DHT22;29783;52.504;13.478;2023-05-18T11:11:01;17.90;37.60
44121;DHT22;29783;52.504;13.478;2023-05-18T11:13:29;17.60;38.40
44121;DHT22;29783;52.504;13.478;2023-05-18T11:18:46;17.70;38.80
44121;DHT22;29783;52.504;13.478;2023-05-18T11:24:29;17.70;38.40
44121;DHT22;29783;52.504;13.478;2023-05-18T11:27:01;18.20;38.00
44121;DHT22;29783;52.504;13.478;2023-05-18T11:29:43;17.80;38.60
44121;DHT22;29783;52.504;13.478;2023-05-18T11:32:22;17.50;39.60
44121;DHT22;29783;52.504;13.478;2023-05-18T11:34:50;17.80;39.30
44121;DHT22;29783;52.504;13.478;2023-05-18T11:40:03;17.90;37.50
44121;DHT22;29783;52.504;13.478;2023-05-18T11:42:33;17.50;37.90
44121;DHT22;29783;52.504;13.478;2023-05-18T12:14:13;21.40;32.20
44121;DHT22;29783;52.504;13.478;2023-05-18T12:16:48;21.20;32.90
44121;DHT22;29783;52.504;13.478;2023-05-18T12:26:52;21.00;32.20
44121;DHT22;29783;52.504;13.478;2023-05-18T12:29:25;21.40;32.20
44121;DHT22;29783;52.504;13.478;2023-05-18T12:35:30;25.10;27.80
44121;DHT22;29783;52.504;13.478;2023-05-18T12:37:58;26.20;26.60
44121;DHT22;29783;52.504;13.478;2023-05-18T12:40:33;26.20;25.60
44121;DHT22;29783;52.504;13.478;2023-05-18T12:43:08;25.80;26.70
44121;DHT22;29783;52.504;13.478;2023-05-18T12:45:34;25.70;26.10
44121;DHT22;29783;52.504;13.478;2023-05-18T12:48:06;25.40;27.00
44121;DHT22;29783;52.504;13.478;2023-05-18T12:50:32;23.60;28.50
44121;DHT22;29783;52.504;13.478;2023-05-18T12:52:59;21.70;30.80
44121;DHT22;29783;52.504;13.478;2023-05-18T12:55:28;21.20;31.90
44121;DHT22;29783;52.504;13.478;2023-05-18T12:58:05;22.20;30.70
44121;DHT22;29783;52.504;13.478;2023-05-18T13:00:36;23.20;29.50
44121;DHT22;29783;52.504;13.478;2023-05-18T13:03:15;23.80;29.20
44121;DHT22;29783;52.504;13.478;2023-05-18T13:05:45;23.90;28.30
44121;DHT22;29783;52.504;13.478;2023-05-18T13:08:15;25.30;26.30
44121;DHT22;29783;52.504;13.478;2023-05-18T13:10:43;24.60;27.50
44121;DHT22;29783;52.504;13.478;2023-05-18T13:13:09;25.00;27.60
44121;DHT22;29783;52.504;13.478;2023-05-18T13:15:36;26.20;26.00
44121;DHT22;29783;52.504;13.478;2023-05-18T13:18:04;25.90;26.50
44121;DHT22;29783;52.504;13.478;2023-05-18T13:20:41;25.50;26.70
44121;DHT22;29783;52.504;13.478;2023-05-18T13:23:10;25.10;28.10
44121;DHT22;29783;52.504;13.478;2023-05-18T13:25:36;25.00;27.00
44121;DHT22;29783;52.504;13.478;2023-05-18T13:28:04;25.10;27.50
44121;DHT22;29783;52.504;13.478;2023-05-18T13:30:30;25.90;26.20
44121;DHT22;29783;52.504;13.478;2023-05-18T13:32:56;26.50;24.80
44121;DHT22;29783;52.504;13.478;2023-05-18T13:35:23;26.60;25.00
44121;DHT22;29783;52.504;13.478;2023-05-18T13:37:49;27.20;23.70
44121;DHT22;29783;52.504;13.478;2023-05-18T13:40:17;27.00;23.90
44121;DHT22;29783;52.504;13.478;2023-05-18T13:42:44;26.70;24.00
44121;DHT22;29783;52.504;13.478;2023-05-18T13:45:11;26.10;24.40
44121;DHT22;29783;52.504;13.478;2023-05-18T13:47:38;26.20;24.90
44121;DHT22;29783;52.504;13.478;2023-05-18T13:50:07;27.20;23.70
44121;DHT22;29783;52.504;13.478;2023-05-18T13:52:37;27.10;23.70
44121;DHT22;29783;52.504;13.478;2023-05-18T13:55:04;27.90;22.80
44121;DHT22;29783;52.504;13.478;2023-05-18T13:57:30;27.30;23.70
44121;DHT22;29783;52.504;13.478;2023-05-18T13:59:57;27.20;24.20
44121;DHT22;29783;52.504;13.478;2023-05-18T14:02:29;27.40;23.60
44121;DHT22;29783;52.504;13.478;2023-05-18T14:04:54;26.30;24.40
44121;DHT22;29783;52.504;13.478;2023-05-18T14:07:21;25.20;25.40
44121;DHT22;29783;52.504;13.478;2023-05-18T14:09:48;24.00;27.10
44121;DHT22;29783;52.504;13.478;2023-05-18T14:12:14;23.70;27.40
44121;DHT22;29783;52.504;13.478;2023-05-18T14:14:40;24.80;26.40
44121;DHT22;29783;52.504;13.478;2023-05-18T14:17:08;26.00;25.50
44121;DHT22;29783;52.504;13.478;2023-05-18T14:19:33;27.10;24.70
44121;DHT22;29783;52.504;13.478;2023-05-18T14:22:00;26.10;24.90
44121;DHT22;29783;52.504;13.478;2023-05-18T14:24:26;25.90;25.40
44121;DHT22;29783;52.504;13.478;2023-05-18T14:26:51;26.50;25.00
44121;DHT22;29783;52.504;13.478;2023-05-18T14:29:18;26.50;24.80
44121;DHT22;29783;52.504;13.478;2023-05-18T14:31:44;27.10;24.20
44121;DHT22;29783;52.504;13.478;2023-05-18T14:34:10;26.10;25.20
44121;DHT22;29783;52.504;13.478;2023-05-18T14:36:36;25.30;26.30
44121;DHT22;29783;52.504;13.478;2023-05-18T14:39:02;26.20;25.30
44121;DHT22;29783;52.504;13.478;2023-05-18T14:41:29;26.60;24.70
44121;DHT22;29783;52.504;13.478;2023-05-18T14:43:55;26.30;24.70
44121;DHT22;29783;52.504;13.478;2023-05-18T14:46:20;26.00;25.10
44121;DHT22;29783;52.504;13.478;2023-05-18T14:48:46;25.10;25.80
44121;DHT22;29783;52.504;13.478;2023-05-18T14:51:12;24.00;27.30
44121;DHT22;29783;52.504;13.478;2023-05-18T14:53:38;23.20;28.20
44121;DHT22;29783;52.504;13.478;2023-05-18T14:56:04;23.00;29.20
44121;DHT22;29783;52.504;13.478;2023-05-18T14:58:32;23.50;28.70
44121;DHT22;29783;52.504;13.478;2023-05-18T15:00:58;23.80;28.40
44121;DHT22;29783;52.504;13.478;2023-05-18T15:03:24;23.70;28.40
44121;DHT22;29783;52.504;13.478;2023-05-18T15:05:49;23.60;28.90
44121;DHT22;29783;52.504;13.478;2023-05-18T15:08:15;23.20;29.60
44121;DHT22;29783;52.504;13.478;2023-05-18T15:10:40;22.70;30.20
44121;DHT22;29783;52.504;13.478;2023-05-18T15:13:06;22.70;30.10
44121;DHT22;29783;52.504;13.478;2023-05-18T15:15:32;22.30;30.00
44121;DHT22;29783;52.504;13.478;2023-05-18T15:17:57;22.00;30.30
44121;DHT22;29783;52.504;13.478;2023-05-18T15:20:23;21.80;30.60
44121;DHT22;29783;52.504;13.478;2023-05-18T15:22:49;21.70;31.30
44121;DHT22;29783;52.504;13.478;2023-05-18T15:25:15;22.00;30.80
44121;DHT22;29783;52.504;13.478;2023-05-18T15:27:41;22.10;30.50
44121;DHT22;29783;52.504;13.478;2023-05-18T15:30:07;21.50;31.60
44121;DHT22;29783;52.504;13.478;2023-05-18T15:32:42;21.50;31.40
44121;DHT22;29783;52.504;13.478;2023-05-18T15:35:08;21.60;31.80
44121;DHT22;29783;52.504;13.478;2023-05-18T15:37:34;21.80;31.50
44121;DHT22;29783;52.504;13.478;2023-05-18T15:39:59;21.10;32.20
44121;DHT22;29783;52.504;13.478;2023-05-18T15:42:26;20.80;32.50
44121;DHT22;29783;52.504;13.478;2023-05-18T15:44:51;20.90;33.50
44121;DHT22;29783;52.504;13.478;2023-05-18T15:47:17;21.10;32.00
44121;DHT22;29783;52.504;13.478;2023-05-18T15:49:43;21.00;32.40
44121;DHT22;29783;52.504;13.478;2023-05-18T15:52:09;21.10;32.10
44121;DHT22;29783;52.504;13.478;2023-05-18T15:54:34;21.20;30.80
44121;DHT22;29783;52.504;13.478;2023-05-18T15:57:00;21.30;30.60
44121;DHT22;29783;52.504;13.478;2023-05-18T15:59:26;21.80;30.00
44121;DHT22;29783;52.504;13.478;2023-05-18T16:01:52;21.20;30.30
44121;DHT22;29783;52.504;13.478;2023-05-18T16:04:18;21.20;31.20
44121;DHT22;29783;52.504;13.478;2023-05-18T16:06:44;21.70;31.10
44121;DHT22;29783;52.504;13.478;2023-05-18T16:09:10;21.30;31.10
44121;DHT22;29783;52.504;13.478;2023-05-18T16:11:35;21.30;31.40
44121;DHT22;29783;52.504;13.478;2023-05-18T16:14:01;21.40;31.10
44121;DHT22;29783;52.504;13.478;2023-05-18T16:16:27;21.30;31.10
44121;DHT22;29783;52.504;13.478;2023-05-18T16:18:53;21.30;31.50
44121;DHT22;29783;52.504;13.478;2023-05-18T16:21:19;20.80;32.30
44121;DHT22;29783;52.504;13.478;2023-05-18T16:23:45;20.90;32.30
44121;DHT22;29783;52.504;13.478;2023-05-18T16:26:11;20.70;32.30
44121;DHT22;29783;52.504;13.478;2023-05-18T16:28:38;20.40;32.40
44121;DHT22;29783;52.504;13.478;2023-05-18T16:31:03;20.20;33.00
44121;DHT22;29783;52.504;13.478;2023-05-18T16:33:33;20.10;33.50
44121;DHT22;29783;52.504;13.478;2023-05-18T16:35:59;20.20;33.20
44121;DHT22;29783;52.504;13.478;2023-05-18T16:38:25;20.20;32.80
44121;DHT22;29783;52.504;13.478;2023-05-18T16:40:50;20.10;33.20
44121;DHT22;29783;52.504;13.478;2023-05-18T16:43:16;20.10;33.10
44121;DHT22;29783;52.504;13.478;2023-05-18T16:45:41;20.00;33.30
44121;DHT22;29783;52.504;13.478;2023-05-18T16:48:07;20.20;33.20
44121;DHT22;29783;52.504;13.478;2023-05-18T16:50:33;20.00;33.60
44121;DHT22;29783;52.504;13.478;2023-05-18T16:52:58;19.70;34.20
44121;DHT22;29783;52.504;13.478;2023-05-18T16:55:24;19.60;33.80
44121;DHT22;29783;52.504;13.478;2023-05-18T16:57:51;19.40;34.40
44121;DHT22;29783;52.504;13.478;2023-05-18T17:00:17;19.10;34.80
44121;DHT22;29783;52.504;13.478;2023-05-18T17:02:43;19.00;34.90
44121;DHT22;29783;52.504;13.478;2023-05-18T17:05:09;19.00;35.40
44121;DHT22;29783;52.504;13.478;2023-05-18T17:07:36;18.90;35.20
44121;DHT22;29783;52.504;13.478;2023-05-18T17:10:02;18.90;35.00
44121;DHT22;29783;52.504;13.478;2023-05-18T17:12:28;18.90;35.50
44121;DHT22;29783;52.504;13.478;2023-05-18T17:14:54;18.70;35.20
44121;DHT22;29783;52.504;13.478;2023-05-18T17:17:20;18.60;35.50
44121;DHT22;29783;52.504;13.478;2023-05-18T17:19:45;18.40;35.70
44121;DHT22;29783;52.504;13.478;2023-05-18T17:22:11;18.30;36.80
44121;DHT22;29783;52.504;13.478;2023-05-18T17:24:37;18.20;36.30
44121;DHT22;29783;52.504;13.478;2023-05-18T17:27:03;18.10;37.20
44121;DHT22;29783;52.504;13.478;2023-05-18T17:29:29;18.10;36.60
44121;DHT22;29783;52.504;13.478;2023-05-18T17:31:55;18.00;36.70
44121;DHT22;29783;52.504;13.478;2023-05-18T17:34:21;18.00;37.00
44121;DHT22;29783;52.504;13.478;2023-05-18T17:36:47;17.90;37.00
44121;DHT22;29783;52.504;13.478;2023-05-18T17:39:13;17.80;37.70
44121;DHT22;29783;52.504;13.478;2023-05-18T17:41:41;17.70;38.10
44121;DHT22;29783;52.504;13.478;2023-05-18T17:44:06;17.70;38.30
44121;DHT22;29783;52.504;13.478;2023-05-18T17:46:32;17.60;38.50
44121;DHT22;29783;52.504;13.478;2023-05-18T17:48:58;17.60;38.30
44121;DHT22;29783;52.504;13.478;2023-05-18T17:51:26;17.60;37.90
44121;DHT22;29783;52.504;13.478;2023-05-18T17:53:51;17.60;37.80
44121;DHT22;29783;52.504;13.478;2023-05-18T17:56:17;17.60;38.20
44121;DHT22;29783;52.504;13.478;2023-05-18T17:58:43;17.50;38.00
44121;DHT22;29783;52.504;13.478;2023-05-18T18:01:08;17.40;38.10
44121;DHT22;29783;52.504;13.478;2023-05-18T18:03:36;17.40;38.10
44121;DHT22;29783;52.504;13.478;2023-05-18T18:06:02;17.40;38.10
44121;DHT22;29783;52.504;13.478;2023-05-18T18:08:28;17.30;38.40
44121;DHT22;29783;52.504;13.478;2023-05-18T18:10:55;17.30;38.70
44121;DHT22;29783;52.504;13.478;2023-05-18T18:13:21;17.10;38.60
44121;DHT22;29783;52.504;13.478;2023-05-18T18:15:46;17.00;38.80
44121;DHT22;29783;52.504;13.478;2023-05-18T18:18:12;16.90;39.10
44121;DHT22;29783;52.504;13.478;2023-05-18T18:20:38;16.80;39.20
44121;DHT22;29783;52.504;13.478;2023-05-18T18:23:04;16.70;39.90
44121;DHT22;29783;52.504;13.478;2023-05-18T18:25:30;16.50;40.00
44121;DHT22;29783;52.504;13.478;2023-05-18T18:27:56;16.40;40.30
44121;DHT22;29783;52.504;13.478;2023-05-18T18:30:22;16.30;40.50
44121;DHT22;29783;52.504;13.478;2023-05-18T18:32:47;16.20;40.70
44121;DHT22;29783;52.504;13.478;2023-05-18T18:35:14;16.10;41.10
44121;DHT22;29783;52.504;13.478;2023-05-18T18:37:40;16.00;41.60
44121;DHT22;29783;52.504;13.478;2023-05-18T18:40:07;15.90;41.70
44121;DHT22;29783;52.504;13.478;2023-05-18T18:42:34;15.80;42.00
44121;DHT22;29783;52.504;13.478;2023-05-18T18:44:59;15.70;42.10
44121;DHT22;29783;52.504;13.478;2023-05-18T18:47:25;15.70;42.50
44121;DHT22;29783;52.504;13.478;2023-05-18T18:49:51;15.60;42.90
44121;DHT22;29783;52.504;13.478;2023-05-18T18:52:16;15.40;43.30
44121;DHT22;29783;52.504;13.478;2023-05-18T18:54:42;15.30;43.50
44121;DHT22;29783;52.504;13.478;2023-05-18T18:57:08;15.20;44.00
44121;DHT22;29783;52.504;13.478;2023-05-18T18:59:36;15.20;43.90
44121;DHT22;29783;52.504;13.478;2023-05-18T19:02:02;15.10;44.30
44121;DHT22;29783;52.504;13.478;2023-05-18T19:04:27;15.00;45.10
44121;DHT22;29783;52.504;13.478;2023-05-18T19:06:53;14.80;44.70
44121;DHT22;29783;52.504;13.478;2023-05-18T19:09:20;14.70;44.90
44121;DHT22;29783;52.504;13.478;2023-05-18T19:11:46;14.70;45.50
44121;DHT22;29783;52.504;13.478;2023-05-18T19:14:11;14.60;46.00
44121;DHT22;29783;52.504;13.478;2023-05-18T19:16:37;14.50;46.70
44121;DHT22;29783;52.504;13.478;2023-05-18T19:19:03;14.40;46.60
44121;DHT22;29783;52.504;13.478;2023-05-18T19:21:36;14.30;46.50
44121;DHT22;29783;52.504;13.478;2023-05-18T19:24:03;14.30;46.50
44121;DHT22;29783;52.504;13.478;2023-05-18T19:26:29;14.20;46.80
44121;DHT22;29783;52.504;13.478;2023-05-18T19:28:57;14.20;47.30
44121;DHT22;29783;52.504;13.478;2023-05-18T19:31:23;14.20;47.40
44121;DHT22;29783;52.504;13.478;2023-05-18T19:33:49;14.10;48.10
44121;DHT22;29783;52.504;13.478;2023-05-18T19:36:16;14.10;48.10
44121;DHT22;29783;52.504;13.478;2023-05-18T19:38:42;14.10;47.80
44121;DHT22;29783;52.504;13.478;2023-05-18T19:41:07;14.00;49.00
44121;DHT22;29783;52.504;13.478;2023-05-18T19:43:33;14.00;48.30
44121;DHT22;29783;52.504;13.478;2023-05-18T19:45:59;14.00;48.50
44121;DHT22;29783;52.504;13.478;2023-05-18T19:48:25;13.90;48.40
44121;DHT22;29783;52.504;13.478;2023-05-18T19:50:51;13.90;48.40
44121;DHT22;29783;52.504;13.478;2023-05-18T19:53:17;13.80;48.80
44121;DHT22;29783;52.504;13.478;2023-05-18T19:55:42;13.80;48.90
44121;DHT22;29783;52.504;13.478;2023-05-18T19:58:08;13.70;49.10
44121;DHT22;29783;52.504;13.478;2023-05-18T20:00:34;13.70;49.30
44121;DHT22;29783;52.504;13.478;2023-05-18T20:03:02;13.70;49.70
44121;DHT22;29783;52.504;13.478;2023-05-18T20:05:28;13.70;50.30
44121;DHT22;29783;52.504;13.478;2023-05-18T20:07:54;13.70;51.90
44121;DHT22;29783;52.504;13.478;2023-05-18T20:10:22;13.60;53.30
44121;DHT22;29783;52.504;13.478;2023-05-18T20:12:48;13.50;54.40
44121;DHT22;29783;52.504;13.478;2023-05-18T20:15:13;13.40;55.30
44121;DHT22;29783;52.504;13.478;2023-05-18T20:17:39;13.30;56.20
44121;DHT22;29783;52.504;13.478;2023-05-18T20:20:05;13.20;57.30
44121;DHT22;29783;52.504;13.478;2023-05-18T20:22:32;13.10;57.80
44121;DHT22;29783;52.504;13.478;2023-05-18T20:24:57;13.00;58.60
44121;DHT22;29783;52.504;13.478;2023-05-18T20:27:25;12.90;59.20
44121;DHT22;29783;52.504;13.478;2023-05-18T20:29:52;12.80;59.90
44121;DHT22;29783;52.504;13.478;2023-05-18T20:32:18;12.80;60.50
44121;DHT22;29783;52.504;13.478;2023-05-18T20:34:44;12.70;60.90
44121;DHT22;29783;52.504;13.478;2023-05-18T20:37:09;12.70;61.40
44121;DHT22;29783;52.504;13.478;2023-05-18T20:39:35;12.70;61.60
44121;DHT22;29783;52.504;13.478;2023-05-18T20:42:02;12.60;61.90
44121;DHT22;29783;52.504;13.478;2023-05-18T20:44:29;12.50;62.40
44121;DHT22;29783;52.504;13.478;2023-05-18T20:46:55;12.50;62.70
44121;DHT22;29783;52.504;13.478;2023-05-18T20:49:21;12.40;62.80
44121;DHT22;29783;52.504;13.478;2023-05-18T20:51:49;12.30;63.10
44121;DHT22;29783;52.504;13.478;2023-05-18T20:54:15;12.20;63.40
44121;DHT22;29783;52.504;13.478;2023-05-18T20:56:45;12.20;63.70
44121;DHT22;29783;52.504;13.478;2023-05-18T20:59:13;12.10;63.90
44121;DHT22;29783;52.504;13.478;2023-05-18T21:01:40;12.10;64.20
44121;DHT22;29783;52.504;13.478;2023-05-18T21:04:07;12.00;64.20
44121;DHT22;29783;52.504;13.478;2023-05-18T21:06:33;12.00;64.40
44121;DHT22;29783;52.504;13.478;2023-05-18T21:08:59;11.80;64.80
44121;DHT22;29783;52.504;13.478;2023-05-18T21:11:25;11.80;65.00
44121;DHT22;29783;52.504;13.478;2023-05-18T21:13:51;11.70;65.20
44121;DHT22;29783;52.504;13.478;2023-05-18T21:16:17;11.70;65.40
44121;DHT22;29783;52.504;13.478;2023-05-18T21:18:42;11.60;65.50
44121;DHT22;29783;52.504;13.478;2023-05-18T21:21:08;11.60;65.60
44121;DHT22;29783;52.504;13.478;2023-05-18T21:23:34;11.50;66.00
44121;DHT22;29783;52.504;13.478;2023-05-18T21:25:59;11.40;66.20
44121;DHT22;29783;52.504;13.478;2023-05-18T21:28:25;11.40;66.30
44121;DHT22;29783;52.504;13.478;2023-05-18T21:30:51;11.40;66.40
44121;DHT22;29783;52.504;13.478;2023-05-18T21:33:17;11.30;66.70
44121;DHT22;29783;52.504;13.478;2023-05-18T21:35:43;11.30;66.70
44121;DHT22;29783;52.504;13.478;2023-05-18T21:38:09;11.20;66.80
44121;DHT22;29783;52.504;13.478;2023-05-18T21:40:34;11.20;67.10
44121;DHT22;29783;52.504;13.478;2023-05-18T21:43:03;11.20;67.10
44121;DHT22;29783;52.504;13.478;2023-05-18T22:31:45;10.20;69.70
44121;DHT22;29783;52.504;13.478;2023-05-18T22:34:11;10.20;69.90
44121;DHT22;29783;52.504;13.478;2023-05-18T22:36:36;10.20;70.10
44121;DHT22;29783;52.504;13.478;2023-05-18T22:39:02;10.10;70.00
44121;DHT22;29783;52.504;13.478;2023-05-18T22:41:28;10.20;70.10
44121;DHT22;29783;52.504;13.478;2023-05-18T22:43:54;10.10;70.10
44121;DHT22;29783;52.504;13.478;2023-05-18T22:46:19;10.10;70.20
44121;DHT22;29783;52.504;13.478;2023-05-18T22:48:45;10.10;70.20
44121;DHT22;29783;52.504;13.478;2023-05-18T22:51:12;10.10;70.30
44121;DHT22;29783;52.504;13.478;2023-05-18T22:53:38;10.00;70.30
44121;DHT22;29783;52.504;13.478;2023-05-18T22:56:04;9.90;70.80
44121;DHT22;29783;52.504;13.478;2023-05-18T22:58:31;9.90;70.70
44121;DHT22;29783;52.504;13.478;2023-05-18T23:00:56;9.90;70.90
44121;DHT22;29783;52.504;13.478;2023-05-18T23:03:22;9.80;71.20
44121;DHT22;29783;52.504;13.478;2023-05-18T23:05:48;9.80;71.20
44121;DHT22;29783;52.504;13.478;2023-05-18T23:08:14;9.80;71.10
44121;DHT22;29783;52.504;13.478;2023-05-18T23:10:40;9.80;71.10
44121;DHT22;29783;52.504;13.478;2023-05-18T23:13:10;9.70;71.20
44121;DHT22;29783;52.504;13.478;2023-05-18T23:15:35;9.70;71.40
44121;DHT22;29783;52.504;13.478;2023-05-18T23:18:01;9.70;71.20
44121;DHT22;29783;52.504;13.478;2023-05-18T23:20:27;9.70;71.20
44121;DHT22;29783;52.504;13.478;2023-05-18T23:22:52;9.70;71.10
44121;DHT22;29783;52.504;13.478;2023-05-18T23:25:18;9.70;71.30
44121;DHT22;29783;52.504;13.478;2023-05-18T23:27:44;9.60;71.20
44121;DHT22;29783;52.504;13.478;2023-05-18T23:30:10;9.50;71.40
44121;DHT22;29783;52.504;13.478;2023-05-18T23:32:36;9.50;71.40
44121;DHT22;29783;52.504;13.478;2023-05-18T23:35:03;9.50;71.40
44121;DHT22;29783;52.504;13.478;2023-05-18T23:37:31;9.50;71.30
44121;DHT22;29783;52.504;13.478;2023-05-18T23:40:00;9.50;71.50
44121;DHT22;29783;52.504;13.478;2023-05-18T23:42:26;9.40;71.70
44121;DHT22;29783;52.504;13.478;2023-05-18T23:44:52;9.30;72.00
44121;DHT22;29783;52.504;13.478;2023-05-18T23:47:18;9.30;72.20